Time;durP1;ratioP1;P1;durP2;ratioP2;P2;SDS_P1;SDS_P2;PMS_P1;PMS_P2;Temp;Humidity;BMP_temperature;BMP_pressure;BME280_temperature;BME280_humidity;BME280_pressure;Samples;Min_cycle;Max_cycle;Signal;HPM_P1;HPM_P2
2023/08/16 00:02:02;;;;;;;11.60;6.30;;;;;;;29.06;36.99;100935.01;108141;1280;21986;-58
2023/08/16 00:04:28;;;;;;;8.70;6.10;;;;;;;29.06;37.10;100933.95;108189;1283;21994;-58
2023/08/16 00:06:54;;;;;;;10.60;6.10;;;;;;;29.06;37.34;100935.92;108091;1285;21986;-67
2023/08/16 00:09:20;;;;;;;10.30;5.90;;;;;;;29.04;37.35;100938.29;108299;1278;21993;-58
2023/08/16 00:11:46;;;;;;;8.50;6.20;;;;;;;29.02;37.41;100936.23;108333;1283;21999;-68
2023/08/16 00:14:12;;;;;;;10.10;6.30;;;;;;;29.00;37.25;100934.77;108286;1283;22043;-58
2023/08/16 00:16:37;;;;;;;9.90;5.90;;;;;;;28.97;37.51;100936.51;108224;1271;21989;-68
2023/08/16 00:19:04;;;;;;;9.90;5.90;;;;;;;28.88;37.63;100934.84;108204;1284;21989;-68
2023/08/16 00:21:29;;;;;;;11.40;6.50;;;;;;;28.86;37.57;100938.44;108157;1280;22015;-67
2023/08/16 00:23:55;;;;;;;9.00;6.90;;;;;;;28.85;37.69;100937.42;108234;1273;22003;-68
2023/08/16 00:26:20;;;;;;;10.00;6.30;;;;;;;28.84;37.55;100936.62;108202;1283;21990;-58
2023/08/16 00:28:48;;;;;;;10.30;6.40;;;;;;;28.83;37.76;100939.06;108108;1279;22026;-68
2023/08/16 00:31:14;;;;;;;11.40;6.80;;;;;;;28.83;37.75;100945.04;108208;1279;21993;-58
2023/08/16 00:33:40;;;;;;;11.10;6.70;;;;;;;28.82;37.75;100944.40;108171;1285;22035;-68
2023/08/16 00:36:06;;;;;;;11.60;6.40;;;;;;;28.81;37.91;100948.05;108142;1283;22024;-68
2023/08/16 00:38:32;;;;;;;11.60;6.80;;;;;;;28.79;38.03;100944.56;108147;1284;21989;-68
2023/08/16 00:40:58;;;;;;;9.00;6.70;;;;;;;28.77;38.03;100942.56;108110;1275;21996;-68
2023/08/16 00:43:24;;;;;;;12.20;7.30;;;;;;;28.76;38.04;100939.59;108165;1284;22047;-58
2023/08/16 00:45:50;;;;;;;7.80;6.50;;;;;;;28.74;38.20;100940.80;108150;1280;22027;-68
2023/08/16 00:48:16;;;;;;;8.50;6.70;;;;;;;28.72;38.11;100943.34;108121;1285;21986;-68
2023/08/16 00:50:41;;;;;;;9.20;6.10;;;;;;;28.71;38.15;100942.64;108135;1279;21996;-68
2023/08/16 00:53:08;;;;;;;9.30;6.40;;;;;;;28.71;38.17;100939.98;108108;1281;21990;-58
2023/08/16 00:55:33;;;;;;;10.50;6.60;;;;;;;28.71;38.18;100940.70;108123;1285;21987;-58
2023/08/16 00:57:59;;;;;;;6.90;5.90;;;;;;;28.68;38.30;100941.84;108106;1276;21983;-58
2023/08/16 01:00:25;;;;;;;9.20;6.50;;;;;;;28.62;38.42;100944.33;108121;1279;21985;-58
2023/08/16 01:02:50;;;;;;;9.90;7.20;;;;;;;28.60;38.47;100945.75;108094;1279;21994;-68
2023/08/16 01:05:16;;;;;;;8.80;6.80;;;;;;;28.61;38.61;100947.30;108070;1274;21992;-57
2023/08/16 01:07:42;;;;;;;11.20;7.10;;;;;;;28.56;38.77;100948.96;108140;1285;21989;-67
2023/08/16 01:10:08;;;;;;;10.30;7.50;;;;;;;28.50;38.67;100949.73;108125;1285;21997;-67
2023/08/16 01:12:47;;;;;;;10.30;6.90;;;;;;;28.48;38.83;100949.58;107860;1274;350335;-58
2023/08/16 01:15:21;;;;;;;11.90;7.30;;;;;;;28.46;39.10;100954.55;108157;1276;22004;-57
2023/08/16 01:17:46;;;;;;;9.30;7.90;;;;;;;28.44;39.01;100957.08;108101;1274;21984;-58
2023/08/16 01:20:12;;;;;;;10.60;7.40;;;;;;;28.43;39.09;100958.65;108129;1279;21994;-68
2023/08/16 01:22:45;;;;;;;10.50;7.30;;;;;;;28.38;39.17;100961.90;108122;1284;22022;-58
2023/08/16 01:25:34;;;;;;;10.50;7.70;;;;;;;28.39;39.29;100961.84;108107;1280;21988;-58
2023/08/16 01:27:59;;;;;;;11.50;7.80;;;;;;;28.36;39.43;100964.36;108102;1280;22157;-67
2023/08/16 01:30:25;;;;;;;11.30;7.80;;;;;;;28.32;39.53;100963.96;108213;1277;21994;-58
2023/08/16 01:32:51;;;;;;;11.40;7.00;;;;;;;28.30;39.50;100965.02;108110;1285;21985;-68
2023/08/16 01:35:16;;;;;;;9.30;6.90;;;;;;;28.31;39.57;100963.89;108131;1280;24154;-67
2023/08/16 01:37:42;;;;;;;11.60;7.20;;;;;;;28.35;39.50;100961.95;108101;1285;22466;-58
2023/08/16 01:40:09;;;;;;;10.80;7.50;;;;;;;28.31;39.74;100963.11;108149;1284;21996;-58
2023/08/16 01:42:43;;;;;;;10.90;7.10;;;;;;;28.29;39.75;100967.06;108130;1285;22012;-68
2023/08/16 01:45:09;;;;;;;11.70;7.80;;;;;;;28.27;39.89;100971.95;108114;1277;21983;-68
2023/08/16 01:47:35;;;;;;;10.20;7.80;;;;;;;28.26;39.85;100969.54;108242;1284;21990;-58
2023/08/16 01:50:00;;;;;;;10.60;8.90;;;;;;;28.30;39.97;100966.61;108143;1282;21989;-68
2023/08/16 01:52:26;;;;;;;9.50;7.90;;;;;;;28.22;40.17;100971.25;108119;1274;21990;-58
2023/08/16 01:54:52;;;;;;;10.60;8.30;;;;;;;28.17;40.28;100972.38;108200;1285;21994;-58
2023/08/16 01:57:17;;;;;;;11.10;8.70;;;;;;;28.13;40.87;100973.94;108249;1284;21990;-67
2023/08/16 01:59:43;;;;;;;13.80;7.90;;;;;;;28.10;40.89;100977.02;108218;1284;22459;-58
2023/08/16 02:02:08;;;;;;;10.80;7.20;;;;;;;28.08;40.77;100973.21;108133;1279;21987;-68
2023/08/16 02:04:34;;;;;;;11.80;7.00;;;;;;;28.05;40.88;100975.76;108143;1276;21995;-67
2023/08/16 02:07:00;;;;;;;9.70;7.90;;;;;;;28.07;40.88;100975.42;108082;1278;21989;-67
2023/08/16 02:09:25;;;;;;;11.50;8.10;;;;;;;28.06;40.73;100973.71;108088;1280;21999;-58
2023/08/16 02:11:51;;;;;;;9.70;8.60;;;;;;;27.94;41.00;100973.89;108133;1283;21986;-68
2023/08/16 02:14:17;;;;;;;11.30;8.20;;;;;;;27.87;41.06;100975.13;108118;1283;22024;-68
2023/08/16 02:16:42;;;;;;;10.00;8.30;;;;;;;27.83;41.16;100972.54;108157;1284;22040;-68
2023/08/16 02:19:08;;;;;;;11.10;8.60;;;;;;;27.81;41.29;100969.28;108186;1284;22011;-68
2023/08/16 02:21:33;;;;;;;10.60;9.10;;;;;;;27.78;41.43;100973.13;108162;1284;21987;-67
2023/08/16 02:23:59;;;;;;;12.90;8.30;;;;;;;27.75;41.48;100973.71;108186;1282;22003;-68
2023/08/16 02:26:25;;;;;;;9.30;7.50;;;;;;;27.73;41.54;100977.11;108251;1279;21997;-58
2023/08/16 02:28:51;;;;;;;12.60;7.40;;;;;;;27.72;41.37;100977.01;108218;1284;23765;-68
2023/08/16 02:31:17;;;;;;;12.50;7.70;;;;;;;27.80;41.44;100977.50;108211;1278;21962;-67
2023/08/16 02:33:42;;;;;;;18.50;8.40;;;;;;;27.83;41.71;100975.59;108301;1283;22029;-68
2023/08/16 02:36:08;;;;;;;12.60;8.30;;;;;;;27.84;41.72;100974.08;108262;1280;22018;-59
2023/08/16 02:38:34;;;;;;;13.30;8.10;;;;;;;27.84;41.94;100971.58;108241;1278;21987;-68
2023/08/16 02:41:00;;;;;;;10.90;7.70;;;;;;;27.74;42.02;100970.70;108239;1283;22454;-68
2023/08/16 02:43:26;;;;;;;11.10;7.70;;;;;;;27.69;42.19;100972.20;108203;1273;21994;-68
2023/08/16 02:45:52;;;;;;;12.00;7.00;;;;;;;27.65;42.35;100974.61;108238;1280;21995;-67
2023/08/16 02:48:18;;;;;;;10.40;7.30;;;;;;;27.63;42.50;100979.30;108228;1280;21991;-68
2023/08/16 02:50:44;;;;;;;11.70;7.50;;;;;;;27.58;42.70;100978.52;108231;1277;21986;-68
2023/08/16 02:53:09;;;;;;;10.80;7.50;;;;;;;27.56;42.80;100980.72;108279;1280;21995;-58
2023/08/16 02:55:35;;;;;;;10.00;7.20;;;;;;;27.54;42.64;100982.80;108265;1283;21991;-58
2023/08/16 02:58:00;;;;;;;11.50;8.10;;;;;;;27.54;42.94;100982.16;108264;1283;25287;-68
2023/08/16 03:00:26;;;;;;;10.20;8.20;;;;;;;27.51;43.08;100987.23;108177;1279;21994;-68
2023/08/16 03:02:51;;;;;;;10.40;7.70;;;;;;;27.49;43.03;100990.23;108147;1283;23036;-58
2023/08/16 03:05:17;;;;;;;10.00;7.30;;;;;;;27.46;43.26;100989.36;108145;1284;21986;-68
2023/08/16 03:07:43;;;;;;;14.90;7.50;;;;;;;27.44;43.16;100991.11;108215;1283;21984;-68
2023/08/16 03:10:08;;;;;;;8.90;7.40;;;;;;;27.42;43.23;100991.95;108159;1280;22159;-58
2023/08/16 03:12:34;;;;;;;9.70;7.90;;;;;;;27.40;43.31;100992.29;108304;1277;21987;-59
2023/08/16 03:15:00;;;;;;;13.40;8.10;;;;;;;27.37;43.30;100996.67;108377;1273;21998;-69
2023/08/16 03:17:27;;;;;;;14.40;8.60;;;;;;;27.33;43.47;101002.35;108277;1277;22457;-69
2023/08/16 03:19:52;;;;;;;10.40;7.90;;;;;;;27.27;43.47;101002.08;108421;1283;22018;-59
2023/08/16 03:22:18;;;;;;;11.20;8.30;;;;;;;27.19;43.58;101008.23;108198;1280;21996;-69
2023/08/16 03:24:46;;;;;;;13.50;7.90;;;;;;;27.10;43.56;101013.05;108279;1277;21986;-59
2023/08/16 03:27:13;;;;;;;11.60;7.20;;;;;;;27.02;43.57;101013.58;108198;1280;22044;-59
2023/08/16 03:29:38;;;;;;;10.00;7.10;;;;;;;26.97;43.80;101011.25;108252;1279;22003;-59
2023/08/16 03:32:04;;;;;;;13.60;7.50;;;;;;;26.94;43.82;101014.55;108258;1279;21998;-69
2023/08/16 03:34:30;;;;;;;14.60;8.30;;;;;;;26.92;43.80;101016.31;108361;1276;22167;-58
2023/08/16 03:36:56;;;;;;;14.50;8.70;;;;;;;26.91;44.23;101014.57;108239;1276;21989;-69
2023/08/16 03:39:22;;;;;;;11.20;8.50;;;;;;;26.91;44.36;101014.57;109961;1280;23667;-59
2023/08/16 03:41:47;;;;;;;16.60;9.00;;;;;;;26.92;44.44;101013.64;108244;1280;21986;-59
2023/08/16 03:44:13;;;;;;;10.90;8.40;;;;;;;26.93;44.60;101012.64;108203;1284;21989;-69
2023/08/16 03:46:39;;;;;;;14.00;8.70;;;;;;;26.96;44.65;101014.38;108131;1283;21984;-58
2023/08/16 03:49:04;;;;;;;16.10;8.50;;;;;;;27.02;44.85;101017.96;108122;1279;22005;-58
2023/08/16 03:51:30;;;;;;;15.40;8.20;;;;;;;27.05;44.80;101014.52;108224;1280;24435;-58
2023/08/16 03:53:56;;;;;;;19.80;8.30;;;;;;;27.09;45.09;101010.73;108343;1283;21988;-69
2023/08/16 03:56:22;;;;;;;19.90;9.80;;;;;;;27.20;44.93;101012.68;108310;1278;22022;-58
2023/08/16 03:58:47;;;;;;;14.70;8.20;;;;;;;27.28;44.87;101011.40;108270;1283;22023;-67
2023/08/16 04:01:13;;;;;;;13.50;9.20;;;;;;;27.28;45.08;101007.90;108322;1283;21984;-68
2023/08/16 04:03:38;;;;;;;11.40;8.50;;;;;;;27.35;45.09;101006.56;108281;1283;22157;-59
2023/08/16 04:06:10;;;;;;;10.50;8.00;;;;;;;27.41;44.93;101005.91;108309;1283;21995;-60
2023/08/16 04:08:36;;;;;;;12.00;7.80;;;;;;;27.48;45.07;101003.97;108306;1283;21989;-68
2023/08/16 04:11:02;;;;;;;10.40;8.40;;;;;;;27.54;45.17;101006.80;108334;1276;23717;-68
2023/08/16 04:13:27;;;;;;;11.50;8.60;;;;;;;27.60;45.24;101006.55;108290;1279;21987;-59
2023/08/16 04:15:53;;;;;;;10.40;8.70;;;;;;;27.65;45.36;101002.38;108299;1283;21955;-60
2023/08/16 04:18:19;;;;;;;14.40;8.90;;;;;;;27.70;45.36;101001.09;108306;1277;22848;-58
2023/08/16 04:20:44;;;;;;;15.40;9.40;;;;;;;27.76;45.69;101000.99;108322;1283;22007;-68
2023/08/16 04:23:10;;;;;;;13.30;8.40;;;;;;;27.84;45.93;101000.80;108313;1283;21986;-59
2023/08/16 04:25:35;;;;;;;13.40;7.60;;;;;;;27.92;46.11;101001.43;108286;1280;21989;-68
2023/08/16 04:28:01;;;;;;;12.00;8.80;;;;;;;28.03;46.05;100999.55;108298;1276;21985;-59
2023/08/16 04:30:27;;;;;;;10.60;8.30;;;;;;;28.15;45.80;100996.52;108291;1283;21989;-59
2023/08/16 04:32:52;;;;;;;12.20;8.60;;;;;;;28.28;45.60;100996.98;108302;1280;22033;-59
2023/08/16 04:35:18;;;;;;;16.20;9.50;;;;;;;28.41;45.54;100999.19;108301;1277;21976;-69
2023/08/16 04:37:44;;;;;;;12.80;8.60;;;;;;;28.53;45.38;100998.23;108300;1283;21988;-59
2023/08/16 04:40:10;;;;;;;14.30;9.00;;;;;;;28.66;45.25;101000.48;108313;1277;22003;-58
2023/08/16 04:42:35;;;;;;;12.80;8.90;;;;;;;28.78;45.44;101002.30;108334;1276;22772;-58
2023/08/16 04:45:03;;;;;;;21.90;8.60;;;;;;;28.94;45.07;101004.23;108318;1283;21986;-58
2023/08/16 04:47:30;;;;;;;13.20;8.10;;;;;;;29.13;44.68;101002.73;108401;1276;23660;-71
2023/08/16 04:49:56;;;;;;;13.40;8.30;;;;;;;29.30;44.71;101003.89;108334;1283;21986;-58
2023/08/16 04:52:22;;;;;;;18.40;9.20;;;;;;;29.43;44.51;101003.24;108296;1283;22026;-69
2023/08/16 04:54:48;;;;;;;19.80;8.70;;;;;;;29.62;44.36;101003.65;108332;1283;21987;-57
2023/08/16 04:57:13;;;;;;;17.70;8.80;;;;;;;29.76;44.32;101001.23;108279;1274;22007;-62
2023/08/16 04:59:39;;;;;;;13.70;8.20;;;;;;;29.90;44.03;100995.67;108310;1283;21988;-71
2023/08/16 05:02:05;;;;;;;18.00;9.10;;;;;;;30.01;44.05;100995.33;108286;1280;22044;-58
2023/08/16 05:04:30;;;;;;;12.00;8.50;;;;;;;30.16;43.84;100991.75;108312;1283;22449;-70
2023/08/16 05:06:56;;;;;;;12.90;8.40;;;;;;;30.32;43.67;100990.92;108092;1283;21989;-58
2023/08/16 05:09:22;;;;;;;10.60;8.30;;;;;;;30.50;43.42;100992.63;108373;1276;21987;-70
2023/08/16 05:11:48;;;;;;;9.80;7.80;;;;;;;30.63;43.35;100991.87;108334;1282;21985;-69
2023/08/16 05:14:13;;;;;;;10.60;7.60;;;;;;;30.75;43.34;100992.61;108326;1280;22073;-58
2023/08/16 05:16:39;;;;;;;10.70;8.10;;;;;;;30.91;43.38;100991.56;108313;1283;21981;-58
2023/08/16 05:19:04;;;;;;;17.80;8.60;;;;;;;31.07;43.28;100995.42;108126;1277;22146;-71
2023/08/16 05:21:30;;;;;;;10.60;8.00;;;;;;;31.18;43.02;100997.36;108289;1283;21996;-68
2023/08/16 05:23:56;;;;;;;17.50;8.40;;;;;;;31.24;42.93;100999.25;108056;1284;22007;-58
2023/08/16 05:26:21;;;;;;;16.10;7.90;;;;;;;31.31;42.97;101001.00;108073;1279;22062;-58
2023/08/16 05:28:47;;;;;;;12.30;8.10;;;;;;;31.43;42.70;101002.03;108326;1280;21986;-58
2023/08/16 05:31:13;;;;;;;10.20;7.20;;;;;;;31.57;42.55;101002.77;108361;1274;21988;-59
2023/08/16 05:33:39;;;;;;;11.40;7.20;;;;;;;31.74;42.41;101003.61;108331;1282;22191;-59
2023/08/16 05:36:05;;;;;;;11.50;7.60;;;;;;;31.91;42.37;101002.18;108343;1273;21989;-58
2023/08/16 05:38:31;;;;;;;11.90;7.60;;;;;;;32.08;42.25;101000.99;108364;1279;21992;-58
2023/08/16 05:40:57;;;;;;;11.30;8.10;;;;;;;32.24;42.08;100995.31;108337;1283;21992;-72
2023/08/16 05:43:23;;;;;;;11.60;8.20;;;;;;;32.41;41.67;100996.44;108095;1283;21989;-58
2023/08/16 05:45:48;;;;;;;13.70;7.80;;;;;;;32.51;41.55;100995.66;108345;1283;22000;-58
2023/08/16 05:48:14;;;;;;;12.60;7.60;;;;;;;32.68;41.62;100994.20;108738;1278;21987;-58
2023/08/16 05:50:41;;;;;;;13.50;7.30;;;;;;;32.89;41.50;100993.54;108368;1280;21987;-69
2023/08/16 05:53:07;;;;;;;20.90;11.40;;;;;;;33.08;41.34;100993.88;108386;1284;21997;-69
2023/08/16 05:55:33;;;;;;;13.80;9.10;;;;;;;33.27;41.09;100993.55;108317;1283;21982;-58
2023/08/16 05:58:00;;;;;;;13.00;8.90;;;;;;;33.45;40.90;100996.58;108352;1283;21985;-60
2023/08/16 06:00:25;;;;;;;18.20;9.60;;;;;;;33.64;40.76;100995.81;108277;1277;21984;-60
2023/08/16 06:02:52;;;;;;;11.30;7.20;;;;;;;33.80;40.59;100996.58;108281;1273;22030;-57
2023/08/16 06:05:18;;;;;;;12.40;7.80;;;;;;;33.99;40.20;100995.53;108387;1283;22115;-68
2023/08/16 06:07:45;;;;;;;10.10;6.90;;;;;;;34.21;39.82;100989.66;108333;1283;21992;-70
2023/08/16 06:10:10;;;;;;;11.20;6.80;;;;;;;34.40;39.46;100988.98;108338;1283;21989;-64
2023/08/16 06:12:36;;;;;;;8.80;6.60;;;;;;;34.57;39.43;100992.90;108342;1283;21989;-58
2023/08/16 06:15:02;;;;;;;8.50;6.00;;;;;;;34.77;39.37;100992.98;108301;1274;21981;-58
2023/08/16 06:17:28;;;;;;;8.80;6.40;;;;;;;35.00;39.26;100994.20;108299;1273;21987;-69
2023/08/16 06:19:54;;;;;;;11.50;7.60;;;;;;;35.21;38.94;100991.39;108310;1276;21991;-58
2023/08/16 06:22:19;;;;;;;8.60;5.80;;;;;;;35.41;38.51;100987.06;108333;1276;22091;-70
2023/08/16 06:24:45;;;;;;;8.10;5.90;;;;;;;35.60;38.28;100988.90;108329;1283;21994;-66
2023/08/16 06:27:11;;;;;;;9.00;5.70;;;;;;;35.76;37.98;100989.50;108319;1281;21974;-58
2023/08/16 06:29:36;;;;;;;13.90;7.40;;;;;;;35.93;37.80;100989.50;108327;1283;21987;-57
2023/08/16 06:32:03;;;;;;;23.60;11.90;;;;;;;36.24;37.91;100994.45;108314;1276;21997;-58
2023/08/16 06:34:29;;;;;;;22.00;11.20;;;;;;;36.64;37.36;100992.16;108305;1280;21988;-58
2023/08/16 06:36:55;;;;;;;20.40;11.30;;;;;;;36.90;36.90;100988.35;108164;1283;22004;-60
2023/08/16 06:39:20;;;;;;;15.70;9.20;;;;;;;37.05;36.64;100986.17;108213;1279;21984;-72
2023/08/16 06:41:46;;;;;;;12.90;8.30;;;;;;;37.20;36.36;100990.14;108214;1283;21996;-76
2023/08/16 06:44:11;;;;;;;11.20;6.10;;;;;;;37.29;35.92;100991.27;108156;1283;22005;-58
2023/08/16 06:46:37;;;;;;;12.30;7.10;;;;;;;37.31;35.85;100992.00;108298;1273;21983;-58
2023/08/16 06:49:03;;;;;;;11.10;6.10;;;;;;;37.41;35.90;100991.16;108325;1284;22001;-75
2023/08/16 06:51:29;;;;;;;10.90;5.80;;;;;;;37.55;35.62;100987.80;108303;1276;22022;-64
2023/08/16 06:53:55;;;;;;;8.40;6.30;;;;;;;37.70;35.50;100988.91;108218;1273;21996;-74
2023/08/16 06:56:20;;;;;;;9.00;6.10;;;;;;;37.87;35.25;100987.44;108824;1282;21992;-71
2023/08/16 06:58:46;;;;;;;9.20;5.20;;;;;;;38.04;35.12;100985.42;108328;1280;22922;-58
2023/08/16 07:01:11;;;;;;;7.70;5.20;;;;;;;38.21;34.87;100985.81;108270;1276;21992;-73
2023/08/16 07:03:37;;;;;;;8.20;5.10;;;;;;;38.37;34.70;100986.72;108312;1283;21995;-59
2023/08/16 07:06:03;;;;;;;10.40;5.00;;;;;;;38.56;34.33;100984.09;108276;1273;21995;-58
2023/08/16 07:08:28;;;;;;;8.90;4.90;;;;;;;38.73;34.33;100986.27;108306;1283;22024;-73
2023/08/16 07:10:54;;;;;;;7.70;4.50;;;;;;;38.92;34.13;100985.81;108340;1280;23458;-72
2023/08/16 07:13:20;;;;;;;7.80;4.80;;;;;;;39.11;33.91;100987.20;108088;1272;23069;-72
2023/08/16 07:15:46;;;;;;;5.40;4.30;;;;;;;39.27;33.54;100992.21;108108;1284;21994;-74
2023/08/16 07:18:12;;;;;;;5.90;4.30;;;;;;;39.42;33.44;100988.02;108255;1271;23765;-74
2023/08/16 07:20:38;;;;;;;6.20;4.10;;;;;;;39.61;33.13;100986.23;108236;1276;22000;-57
2023/08/16 07:23:06;;;;;;;6.70;3.70;;;;;;;39.79;32.90;100983.70;108065;1284;22009;-73
2023/08/16 07:25:32;;;;;;;6.20;4.10;;;;;;;39.97;32.42;100981.99;108256;1284;23663;-72
2023/08/16 07:27:57;;;;;;;5.60;3.90;;;;;;;40.07;32.25;100982.38;108109;1279;22104;-58
2023/08/16 07:30:23;;;;;;;5.10;3.60;;;;;;;40.20;32.30;100981.93;108298;1280;22027;-58
2023/08/16 07:32:49;;;;;;;6.20;3.70;;;;;;;40.37;32.14;100982.73;108231;1279;21988;-59
2023/08/16 07:35:14;;;;;;;6.70;4.10;;;;;;;40.39;32.07;100987.55;108345;1276;21986;-74
2023/08/16 07:37:40;;;;;;;4.70;3.80;;;;;;;40.69;31.82;100989.77;108251;1280;21990;-75
2023/08/16 07:40:06;;;;;;;6.50;3.80;;;;;;;40.88;31.34;100989.23;108195;1283;23617;-75
2023/08/16 07:42:32;;;;;;;5.40;3.20;;;;;;;41.06;30.97;100991.90;108356;1276;22161;-58
2023/08/16 07:44:59;;;;;;;6.70;3.60;;;;;;;41.24;30.90;100987.30;108148;1279;22029;-72
2023/08/16 07:47:25;;;;;;;4.60;3.30;;;;;;;41.39;30.90;100988.88;108192;1278;22024;-73
2023/08/16 07:49:50;;;;;;;5.70;3.60;;;;;;;41.54;30.84;100989.59;108143;1276;23746;-58
2023/08/16 07:52:16;;;;;;;5.70;3.50;;;;;;;41.66;30.49;100993.63;108205;1279;21985;-74
2023/08/16 07:54:42;;;;;;;4.20;3.00;;;;;;;41.76;30.05;100992.05;108181;1279;21993;-74
2023/08/16 07:57:07;;;;;;;6.30;3.20;;;;;;;41.87;29.82;100995.29;108298;1282;21959;-75
2023/08/16 07:59:33;;;;;;;5.00;2.90;;;;;;;41.98;29.51;101001.01;108298;1280;22571;-76
2023/08/16 08:01:59;;;;;;;5.30;3.60;;;;;;;42.10;29.50;101003.52;108311;1284;22024;-59
2023/08/16 08:04:25;;;;;;;4.10;3.00;;;;;;;42.25;29.39;101000.39;108354;1273;23052;-59
2023/08/16 08:06:51;;;;;;;6.50;2.90;;;;;;;42.45;29.33;100999.86;108268;1280;21983;-59
2023/08/16 08:09:17;;;;;;;4.10;3.00;;;;;;;42.61;29.01;101000.46;108262;1283;22019;-76
2023/08/16 08:11:43;;;;;;;4.20;2.50;;;;;;;42.66;28.78;100995.85;108117;1276;23787;-75
2023/08/16 08:14:08;;;;;;;5.10;3.30;;;;;;;42.80;28.57;100992.63;108241;1279;22157;-59
2023/08/16 08:16:34;;;;;;;4.40;2.60;;;;;;;42.92;28.23;100989.01;108279;1280;21992;-59
2023/08/16 08:18:59;;;;;;;3.50;2.80;;;;;;;42.94;28.09;100988.61;108254;1276;21993;-59
2023/08/16 08:21:25;;;;;;;5.30;2.70;;;;;;;42.99;28.05;100987.78;108319;1282;22029;-59
2023/08/16 08:23:51;;;;;;;5.70;3.20;;;;;;;43.12;28.10;100988.17;108334;1274;21993;-74
2023/08/16 08:26:16;;;;;;;6.00;3.00;;;;;;;43.31;27.91;100980.72;108320;1277;22948;-74
2023/08/16 08:28:43;;;;;;;4.20;2.90;;;;;;;43.47;27.81;100978.79;108222;1279;21987;-59
2023/08/16 08:31:09;;;;;;;4.10;3.00;;;;;;;43.63;27.65;100978.01;108217;1282;23531;-77
2023/08/16 08:33:35;;;;;;;5.90;3.10;;;;;;;43.77;27.53;100983.02;108393;1276;22050;-59
2023/08/16 08:36:03;;;;;;;6.00;3.20;;;;;;;43.94;27.39;100984.54;108248;1273;21996;-60
2023/08/16 08:38:29;;;;;;;4.50;3.10;;;;;;;44.09;27.09;100976.76;108314;1279;21978;-59
2023/08/16 08:40:58;;;;;;;6.10;2.90;;;;;;;44.18;26.95;100980.38;108180;1279;22021;-75
2023/08/16 08:43:28;;;;;;;3.30;2.80;;;;;;;44.29;27.02;100980.48;108222;1284;23726;-60
2023/08/16 08:45:56;;;;;;;4.30;2.80;;;;;;;44.41;26.82;100973.52;108308;1280;23619;-60
2023/08/16 08:48:21;;;;;;;8.40;3.00;;;;;;;44.48;26.70;100976.20;108352;1273;22000;-59
2023/08/16 08:50:47;;;;;;;5.70;2.90;;;;;;;44.55;26.43;100977.33;108292;1276;22034;-59
2023/08/16 08:53:13;;;;;;;4.20;2.70;;;;;;;44.63;26.45;100983.02;108112;1282;22028;-73
2023/08/16 08:55:39;;;;;;;4.80;2.50;;;;;;;44.70;26.34;100978.98;108273;1279;24354;-59
2023/08/16 08:58:04;;;;;;;4.30;2.70;;;;;;;44.85;26.13;100972.81;108086;1279;21973;-76
2023/08/16 09:00:34;;;;;;;5.90;2.40;;;;;;;44.97;26.13;100975.32;108269;1283;21996;-59
2023/08/16 09:02:59;;;;;;;5.30;2.90;;;;;;;45.08;26.02;100971.35;108356;1279;21981;-59
2023/08/16 09:05:25;;;;;;;5.40;3.00;;;;;;;45.22;25.78;100975.30;108122;1283;21991;-61
2023/08/16 09:07:51;;;;;;;5.30;3.00;;;;;;;45.39;25.81;100972.09;108260;1283;21989;-59
2023/08/16 09:10:17;;;;;;;6.30;3.10;;;;;;;45.55;25.42;100972.39;108157;1279;21984;-60
2023/08/16 09:12:43;;;;;;;7.50;2.60;;;;;;;45.68;25.32;100967.41;108330;1279;21987;-57
2023/08/16 09:15:09;;;;;;;7.50;2.90;;;;;;;45.62;24.99;100961.90;108248;1283;21987;-69
2023/08/16 09:17:35;;;;;;;5.40;2.70;;;;;;;45.49;25.28;100962.57;108332;1279;22065;-58
2023/08/16 09:20:01;;;;;;;6.10;3.00;;;;;;;45.37;24.99;100960.15;108236;1283;22171;-69
2023/08/16 09:22:29;;;;;;;5.60;3.30;;;;;;;45.29;25.06;100959.75;108406;1284;22001;-59
2023/08/16 09:24:56;;;;;;;4.90;3.20;;;;;;;45.47;24.75;100954.00;108068;1283;23117;-71
2023/08/16 09:27:22;;;;;;;5.40;3.00;;;;;;;45.66;24.76;100955.34;108042;1276;23622;-59
2023/08/16 09:29:49;;;;;;;3.40;2.90;;;;;;;45.59;24.58;100955.27;108181;1284;23715;-73
2023/08/16 09:32:14;;;;;;;4.80;2.90;;;;;;;45.62;24.75;100957.58;108121;1283;22047;-71
2023/08/16 09:34:40;;;;;;;3.20;2.80;;;;;;;45.69;24.59;100956.86;108066;1284;21989;-71
2023/08/16 09:37:05;;;;;;;5.70;2.80;;;;;;;45.80;24.57;100950.83;108161;1276;22003;-72
2023/08/16 09:39:31;;;;;;;3.80;2.50;;;;;;;45.95;24.45;100953.96;108151;1273;23641;-71
2023/08/16 09:41:57;;;;;;;10.40;3.20;;;;;;;46.09;24.38;100952.33;108160;1283;23823;-59
2023/08/16 09:44:29;;;;;;;4.10;3.10;;;;;;;46.04;23.75;100952.04;108185;1284;21990;-59
2023/08/16 09:46:58;;;;;;;6.40;2.80;;;;;;;45.63;23.82;100952.04;108197;1279;21986;-71
2023/08/16 09:49:24;;;;;;;6.40;4.10;;;;;;;45.34;23.98;100947.50;108270;1282;23732;-59
2023/08/16 09:51:50;;;;;;;6.90;3.20;;;;;;;45.28;24.12;100946.91;108091;1283;21986;-59
2023/08/16 09:54:17;;;;;;;6.00;3.10;;;;;;;45.31;24.23;100946.21;108133;1282;22455;-69
2023/08/16 09:56:47;;;;;;;6.80;3.10;;;;;;;45.34;24.18;100940.02;108244;1283;23769;-59
2023/08/16 09:59:12;;;;;;;4.40;2.90;;;;;;;45.45;23.95;100937.13;108251;1280;21976;-59
2023/08/16 10:01:41;;;;;;;7.00;2.90;;;;;;;45.52;23.86;100937.50;108254;1277;21983;-59
2023/08/16 10:04:07;;;;;;;5.00;3.00;;;;;;;45.62;23.96;100935.95;108102;1283;21971;-66
2023/08/16 10:06:34;;;;;;;4.40;2.80;;;;;;;45.70;23.75;100930.09;108078;1284;24082;-71
2023/08/16 10:09:02;;;;;;;6.10;3.00;;;;;;;45.82;23.45;100927.14;108197;1280;23609;-70
2023/08/16 10:11:28;;;;;;;15.10;10.00;;;;;;;45.65;23.16;100926.77;108241;1279;22066;-59
2023/08/16 10:13:54;;;;;;;5.90;3.60;;;;;;;45.30;23.02;100923.79;108302;1280;21953;-59
2023/08/16 10:16:23;;;;;;;6.00;3.10;;;;;;;44.91;23.07;100930.23;108323;1280;21987;-59
2023/08/16 10:18:50;;;;;;;5.00;2.30;;;;;;;44.82;23.36;100931.90;108239;1279;21983;-69
2023/08/16 10:21:16;;;;;;;4.90;2.80;;;;;;;45.07;23.38;100928.55;108227;1283;22055;-70
2023/08/16 10:23:42;;;;;;;5.80;2.60;;;;;;;45.19;22.56;100921.55;108374;1282;22031;-70
2023/08/16 10:26:14;;;;;;;5.90;2.30;;;;;;;44.99;22.44;100921.17;108213;1283;22749;-70
2023/08/16 10:28:44;;;;;;;4.70;2.40;;;;;;;45.00;22.92;100926.09;108231;1284;24375;-68
2023/08/16 10:31:10;;;;;;;3.70;2.30;;;;;;;45.28;23.13;100924.80;108138;1283;21994;-69
2023/08/16 10:33:37;;;;;;;4.30;2.60;;;;;;;45.66;23.07;100920.27;108093;1280;23644;-68
2023/08/16 10:36:03;;;;;;;4.60;2.40;;;;;;;45.96;22.42;100918.57;108331;1284;21993;-59
2023/08/16 10:38:38;;;;;;;5.50;2.60;;;;;;;46.12;22.38;100921.12;108138;1279;21990;-68
2023/08/16 10:41:14;;;;;;;5.30;2.50;;;;;;;46.06;21.76;100917.42;108242;1280;21984;-69
2023/08/16 10:43:50;;;;;;;3.70;2.40;;;;;;;45.90;22.08;100907.92;108251;1283;22080;-59
2023/08/16 10:46:29;;;;;;;3.90;2.30;;;;;;;45.97;22.16;100910.41;108346;1276;21991;-71
2023/08/16 10:48:56;;;;;;;4.10;2.30;;;;;;;46.24;22.20;100907.63;108260;1276;21983;-58
2023/08/16 10:51:22;;;;;;;3.10;2.40;;;;;;;46.43;21.74;100905.45;108205;1279;22022;-59
2023/08/16 10:53:47;;;;;;;3.30;2.50;;;;;;;46.63;22.09;100900.39;108169;1282;21987;-68
2023/08/16 10:56:13;;;;;;;3.00;2.20;;;;;;;46.89;22.01;100896.05;108134;1279;22157;-60
2023/08/16 10:58:51;;;;;;;6.80;2.60;;;;;;;47.02;21.79;100898.54;108230;1279;21998;-69
2023/08/16 11:01:18;;;;;;;4.80;2.40;;;;;;;47.15;21.64;100896.43;108288;1282;21995;-60
2023/08/16 11:03:43;;;;;;;3.40;2.10;;;;;;;47.35;21.54;100887.98;108325;1276;23517;-71
2023/08/16 11:06:14;;;;;;;3.50;2.20;;;;;;;47.55;21.42;100888.02;108157;1283;24133;-60
2023/08/16 11:08:43;;;;;;;5.30;2.60;;;;;;;47.75;21.35;100887.00;108255;1282;21992;-60